Time;durP1;ratioP1;P1;durP2;ratioP2;P2;SDS_P1;SDS_P2;PMS_P1;PMS_P2;Temp;Humidity;BMP_temperature;BMP_pressure;BME280_temperature;BME280_humidity;BME280_pressure;Samples;Min_cycle;Max_cycle;Signal;HPM_P1;HPM_P2
2021/12/09 00:03:06;;;;;;;14.30;8.05;;;;;;;-3.21;69.62;100160.00;3530606;79;21015;-75
2021/12/09 00:07:56;;;;;;;17.42;9.30;;;;;;;-3.24;69.73;100154.72;3560298;79;21209;-75
2021/12/09 00:12:48;;;;;;;17.73;8.55;;;;;;;-3.21;69.60;100161.27;3532808;79;21054;-75
2021/12/09 00:17:40;;;;;;;16.12;9.50;;;;;;;-3.27;69.60;100160.91;3521098;79;21985;-77
2021/12/09 00:22:33;;;;;;;15.50;8.55;;;;;;;-3.25;69.90;100155.52;3506284;79;22126;-76
2021/12/09 00:27:25;;;;;;;16.97;9.10;;;;;;;-3.25;69.68;100163.14;3526143;79;20948;-77
2021/12/09 00:32:18;;;;;;;16.77;9.98;;;;;;;-3.33;70.16;100169.39;3573064;79;21017;-77
2021/12/09 00:37:27;;;;;;;18.15;10.05;;;;;;;-3.33;70.40;100175.34;3518403;79;20987;-76
2021/12/09 00:42:05;;;;;;;16.82;9.83;;;;;;;-3.32;70.61;100171.17;3548041;79;20932;-76
2021/12/09 00:46:57;;;;;;;17.90;9.68;;;;;;;-3.29;70.77;100164.61;3525000;79;20928;-75
2021/12/09 00:51:50;;;;;;;15.75;9.80;;;;;;;-3.24;70.59;100172.52;3552258;79;20940;-76
2021/12/09 00:56:43;;;;;;;19.07;9.95;;;;;;;-3.16;70.81;100164.12;3545378;79;20943;-76
2021/12/09 01:01:35;;;;;;;18.02;10.50;;;;;;;-3.17;70.59;100174.66;3533989;79;21473;-75
2021/12/09 01:06:27;;;;;;;18.85;10.10;;;;;;;-3.23;70.59;100170.88;3530662;79;20967;-75
2021/12/09 01:11:20;;;;;;;17.55;10.40;;;;;;;-3.26;70.34;100178.77;3556884;79;21301;-76
2021/12/09 01:16:13;;;;;;;21.10;11.43;;;;;;;-3.31;70.52;100176.72;3557985;79;21969;-76
2021/12/09 01:21:07;;;;;;;19.62;10.78;;;;;;;-3.29;70.72;100184.05;3529065;79;21322;-76
2021/12/09 01:26:03;;;;;;;18.60;9.73;;;;;;;-3.29;70.84;100177.33;3483819;79;20956;-76
2021/12/09 01:31:01;;;;;;;18.65;10.45;;;;;;;-3.31;70.82;100177.99;3555362;79;20947;-76
2021/12/09 01:35:49;;;;;;;18.82;10.58;;;;;;;-3.28;70.97;100180.34;3499844;79;21178;-76
2021/12/09 01:40:42;;;;;;;16.02;9.10;;;;;;;-3.28;70.87;100181.61;3479123;79;20951;-76
2021/12/09 01:45:34;;;;;;;19.35;10.70;;;;;;;-3.32;70.95;100170.77;3500263;79;20917;-76
2021/12/09 01:50:28;;;;;;;21.17;10.58;;;;;;;-3.29;71.03;100164.98;3519308;78;20913;-75
2021/12/09 01:55:21;;;;;;;15.83;10.15;;;;;;;-3.28;71.08;100168.03;3573450;79;20964;-76
2021/12/09 02:00:19;;;;;;;19.35;10.28;;;;;;;-3.25;71.00;100161.88;3634780;77;20931;-76
2021/12/09 02:05:12;;;;;;;18.87;10.63;;;;;;;-3.32;70.96;100161.00;3558770;78;20939;-76
2021/12/09 02:10:08;;;;;;;15.35;8.83;;;;;;;-3.39;71.07;100153.36;3622241;78;21841;-77
2021/12/09 02:15:01;;;;;;;17.65;9.85;;;;;;;-3.38;71.38;100149.15;3530907;78;20972;-76
2021/12/09 02:19:57;;;;;;;15.80;8.83;;;;;;;-3.42;71.37;100140.45;3490252;79;20952;-76
2021/12/09 02:24:56;;;;;;;18.67;9.38;;;;;;;-3.37;71.52;100144.57;3566195;79;21002;-75
2021/12/09 02:29:50;;;;;;;16.52;9.28;;;;;;;-3.30;71.66;100143.77;3568300;79;20968;-76
2021/12/09 02:34:43;;;;;;;16.52;9.60;;;;;;;-3.29;71.58;100140.83;3570795;79;21014;-76
2021/12/09 02:39:35;;;;;;;16.40;9.48;;;;;;;-3.27;71.56;100135.48;3533166;79;20947;-76
2021/12/09 02:44:28;;;;;;;19.02;9.18;;;;;;;-3.29;71.66;100139.55;3519672;79;21189;-75
2021/12/09 02:49:26;;;;;;;13.83;9.53;;;;;;;-3.22;71.71;100130.26;3549030;79;21210;-76
2021/12/09 02:54:20;;;;;;;12.43;9.05;;;;;;;-3.27;71.62;100130.39;3530699;79;20955;-75
2021/12/09 02:59:13;;;;;;;11.80;8.23;;;;;;;-3.30;71.61;100126.38;3573227;79;21891;-76
2021/12/09 03:04:05;;;;;;;15.48;9.20;;;;;;;-3.32;71.54;100119.92;3540206;79;21011;-76
2021/12/09 03:09:03;;;;;;;13.53;8.48;;;;;;;-3.32;71.66;100117.78;3505279;79;21007;-75
2021/12/09 03:13:57;;;;;;;16.37;9.85;;;;;;;-3.31;71.72;100110.63;3544689;79;21409;-76
2021/12/09 03:18:54;;;;;;;15.93;9.33;;;;;;;-3.33;71.64;100109.65;3546524;79;21026;-76
2021/12/09 03:23:47;;;;;;;;;;;;;;;-3.40;71.34;100109.65;3548000;79;21457;-76
2021/12/09 03:28:40;;;;;;;15.93;8.80;;;;;;;-3.52;71.45;100107.23;3563376;79;20464;-76
2021/12/09 03:33:33;;;;;;;13.72;8.55;;;;;;;-3.46;71.82;100102.52;3553354;78;21502;-75
2021/12/09 03:38:27;;;;;;;14.20;8.00;;;;;;;-3.38;71.84;100112.29;3604277;78;20868;-76
2021/12/09 03:43:19;;;;;;;16.05;8.93;;;;;;;-3.33;71.74;100105.44;3551864;78;20916;-76
2021/12/09 03:48:11;;;;;;;14.30;8.80;;;;;;;-3.30;71.64;100104.36;3540312;78;21010;-76
2021/12/09 03:53:04;;;;;;;11.35;7.45;;;;;;;-3.37;71.30;100111.52;3597129;77;20971;-76
2021/12/09 03:57:56;;;;;;;13.62;8.10;;;;;;;-3.41;71.38;100110.85;3519648;78;20901;-76
2021/12/09 04:02:48;;;;;;;12.82;8.45;;;;;;;-3.44;71.36;100102.63;3526031;79;20980;-76
2021/12/09 04:07:40;;;;;;;10.53;7.22;;;;;;;-3.43;71.54;100103.49;3494895;79;20936;-76
2021/12/09 04:12:35;;;;;;;12.90;8.08;;;;;;;-3.37;71.48;100112.80;3549522;79;39280;-75
2021/12/09 04:17:27;;;;;;;16.37;8.48;;;;;;;-3.34;71.30;100111.72;3566970;79;20983;-76
2021/12/09 04:22:20;;;;;;;15.00;7.90;;;;;;;-3.34;71.36;100101.55;3552342;79;20931;-76
2021/12/09 04:27:13;;;;;;;12.95;7.80;;;;;;;-3.32;71.40;100115.23;3485024;79;21059;-76
2021/12/09 04:32:06;;;;;;;11.05;8.03;;;;;;;-3.22;71.54;100113.73;3468813;79;20979;-76
2021/12/09 04:37:00;;;;;;;11.50;8.55;;;;;;;-3.19;71.50;100121.95;3546765;79;21504;-77
2021/12/09 04:41:54;;;;;;;11.88;6.97;;;;;;;-3.19;71.42;100121.56;3544349;79;20944;-75
2021/12/09 04:46:46;;;;;;;11.55;7.28;;;;;;;-3.15;71.01;100137.52;3568489;78;20994;-76
2021/12/09 04:51:38;;;;;;;13.93;8.25;;;;;;;-3.20;71.21;100141.44;3500234;79;20959;-77
2021/12/09 04:56:31;;;;;;;12.95;7.62;;;;;;;-3.18;71.28;100142.41;3546445;79;21657;-75
2021/12/09 05:01:23;;;;;;;11.20;6.92;;;;;;;-3.13;71.44;100151.20;3466077;79;21023;-76
2021/12/09 05:06:18;;;;;;;13.85;8.33;;;;;;;-3.08;71.37;100144.74;3534804;79;20912;-76
2021/12/09 05:11:16;;;;;;;13.90;9.45;;;;;;;-3.03;71.33;100144.14;3510748;79;21455;-77
2021/12/09 05:16:07;;;;;;;12.33;8.03;;;;;;;-3.09;71.25;100142.97;3529087;79;20907;-77
2021/12/09 05:21:01;;;;;;;14.78;9.33;;;;;;;-3.08;71.27;100149.83;3493619;78;21196;-76
2021/12/09 05:25:53;;;;;;;12.50;7.58;;;;;;;-3.12;71.17;100155.48;3448888;81;20934;-76
2021/12/09 05:35:59;;;;;;;14.43;8.95;;;;;;;-3.01;71.50;100147.66;3513768;79;20963;-76
2021/12/09 05:40:51;;;;;;;12.55;8.38;;;;;;;-3.00;71.52;100146.88;3506701;79;20995;-76
2021/12/09 05:45:44;;;;;;;15.20;8.40;;;;;;;-2.98;71.49;100152.53;3484012;79;21015;-76
2021/12/09 05:50:38;;;;;;;14.73;8.53;;;;;;;-2.94;71.56;100145.97;3503860;79;20940;-77
2021/12/09 05:55:31;;;;;;;15.53;8.98;;;;;;;-2.94;71.55;100137.06;3540787;79;21030;-76
2021/12/09 06:00:24;;;;;;;11.83;8.10;;;;;;;-2.93;71.53;100149.89;3509321;79;21454;-76
2021/12/09 06:05:16;;;;;;;15.95;8.25;;;;;;;-2.92;71.66;100160.94;3564171;79;21558;-76
2021/12/09 06:10:10;;;;;;;12.07;7.67;;;;;;;-2.86;71.77;100152.42;3549408;79;20983;-76
2021/12/09 06:15:02;;;;;;;12.13;8.55;;;;;;;-2.83;71.64;100153.86;3540928;79;20978;-76
2021/12/09 06:19:55;;;;;;;15.00;9.35;;;;;;;-2.82;71.45;100149.67;3522221;79;20995;-75
2021/12/09 06:24:47;;;;;;;14.33;9.15;;;;;;;-2.87;71.55;100145.56;3553604;79;21513;-75
2021/12/09 06:29:40;;;;;;;14.13;8.30;;;;;;;-2.90;71.60;100142.82;3546398;79;21449;-76
2021/12/09 06:34:33;;;;;;;12.15;7.87;;;;;;;-2.92;71.74;100139.31;3465951;78;21232;-75
2021/12/09 06:39:26;;;;;;;11.88;7.97;;;;;;;-2.92;71.80;100141.85;3539977;78;21042;-75
2021/12/09 06:44:19;;;;;;;13.05;7.72;;;;;;;-2.90;71.96;100151.73;3552607;79;21015;-76
2021/12/09 06:49:11;;;;;;;13.20;8.65;;;;;;;-2.82;71.93;100145.45;3571496;79;21018;-76
2021/12/09 06:54:04;;;;;;;17.82;9.75;;;;;;;-2.81;71.97;100147.59;3526865;78;20914;-76
2021/12/09 06:58:56;;;;;;;15.65;8.90;;;;;;;-2.78;71.78;100157.57;3532939;79;20995;-75
2021/12/09 07:03:50;;;;;;;13.38;8.50;;;;;;;-2.78;71.81;100156.70;3540172;79;21626;-75
2021/12/09 07:08:48;;;;;;;17.02;10.63;;;;;;;-2.80;71.79;100169.73;3521857;79;20947;-76
2021/12/09 07:13:40;;;;;;;;;;;;;;;-2.82;71.74;100162.40;3551009;79;21428;-76
2021/12/09 07:18:33;;;;;;;16.80;9.83;;;;;;;-2.79;71.95;100153.28;3512118;79;20136;-76
2021/12/09 07:23:25;;;;;;;15.88;9.93;;;;;;;-2.76;72.03;100158.54;3560023;79;21437;-75
2021/12/09 07:28:17;;;;;;;16.17;9.80;;;;;;;-2.73;72.03;100160.41;3515460;79;21511;-75
2021/12/09 07:33:10;;;;;;;19.73;10.32;;;;;;;-2.68;72.11;100167.94;3539310;79;22147;-75
2021/12/09 07:38:04;;;;;;;13.85;9.53;;;;;;;-2.58;72.26;100168.09;3502885;79;21488;-75
2021/12/09 07:42:56;;;;;;;14.10;8.78;;;;;;;-2.51;72.24;100157.48;3501892;79;20955;-75
2021/12/09 07:47:50;;;;;;;16.57;10.82;;;;;;;-2.45;72.17;100156.97;3488588;79;20935;-76
2021/12/09 07:52:45;;;;;;;15.85;9.78;;;;;;;-2.43;72.11;100144.84;3507889;79;21910;-76
2021/12/09 07:57:39;;;;;;;16.10;9.88;;;;;;;-2.38;72.21;100152.36;3486212;79;20916;-76
2021/12/09 08:02:32;;;;;;;17.48;9.45;;;;;;;-2.40;72.11;100160.27;3502378;79;21556;-76
2021/12/09 08:07:24;;;;;;;15.85;10.78;;;;;;;-2.29;72.36;100167.28;3523015;79;20956;-76
2021/12/09 08:12:16;;;;;;;15.68;9.40;;;;;;;-2.24;72.27;100167.56;3507565;79;21454;-76
2021/12/09 08:17:12;;;;;;;14.58;9.35;;;;;;;-2.18;72.25;100157.72;3498548;79;21021;-75
2021/12/09 08:22:03;;;;;;;17.48;11.22;;;;;;;-2.13;72.31;100166.14;3540031;79;20928;-74
2021/12/09 08:26:56;;;;;;;14.65;10.58;;;;;;;-2.07;72.20;100165.63;3572686;78;20945;-76
2021/12/09 08:31:48;;;;;;;17.95;11.00;;;;;;;-2.04;72.12;100167.08;3588811;78;20959;-75
2021/12/09 08:36:40;;;;;;;16.48;9.75;;;;;;;-2.01;72.01;100162.14;3589287;78;20909;-76
2021/12/09 08:41:32;;;;;;;18.73;10.63;;;;;;;-1.98;72.27;100152.14;3595880;79;21008;-74
2021/12/09 08:46:24;;;;;;;18.62;11.18;;;;;;;-1.88;72.21;100169.23;3577320;79;20917;-74
2021/12/09 08:51:16;;;;;;;17.98;11.28;;;;;;;-1.92;72.30;100169.05;3571617;79;20955;-75
2021/12/09 08:56:09;;;;;;;18.87;10.10;;;;;;;-1.86;72.31;100174.02;3532839;79;20945;-78
2021/12/09 09:01:01;;;;;;;16.73;11.28;;;;;;;-1.84;72.43;100180.08;3545033;78;21532;-75
2021/12/09 09:05:55;;;;;;;17.12;11.38;;;;;;;-1.70;72.35;100180.47;3500832;79;20960;-75
2021/12/09 09:10:49;;;;;;;16.70;11.05;;;;;;;-1.67;72.25;100187.03;3525790;79;20987;-76
2021/12/09 09:15:42;;;;;;;17.45;11.60;;;;;;;-1.56;72.38;100187.27;3511628;79;20955;-75
2021/12/09 09:20:39;;;;;;;18.35;12.13;;;;;;;-1.35;72.67;100173.55;3573994;79;22105;-77
2021/12/09 09:25:31;;;;;;;17.60;11.43;;;;;;;-1.25;72.08;100172.77;3511327;78;21475;-75
2021/12/09 09:30:25;;;;;;;20.92;11.45;;;;;;;-1.27;71.86;100161.62;3566571;78;21564;-76
2021/12/09 09:35:19;;;;;;;16.95;11.53;;;;;;;-1.18;72.11;100164.30;3571980;78;21206;-76
2021/12/09 09:40:16;;;;;;;17.55;11.05;;;;;;;-1.10;72.24;100162.56;3567946;79;20932;-75
2021/12/09 09:45:13;;;;;;;18.37;11.10;;;;;;;-1.17;71.99;100162.20;3533796;79;20985;-75
2021/12/09 09:50:08;;;;;;;17.60;10.60;;;;;;;-1.29;71.96;100166.63;3572043;79;20939;-75
2021/12/09 09:55:05;;;;;;;17.77;11.05;;;;;;;-1.44;72.17;100164.11;3538225;79;21015;-77
2021/12/09 09:59:57;;;;;;;18.20;11.23;;;;;;;-1.43;72.54;100172.63;3554969;79;21422;-76
2021/12/09 10:04:57;;;;;;;18.05;11.18;;;;;;;-1.35;72.69;100154.83;3530253;79;21544;-75
2021/12/09 10:09:44;;;;;;;16.42;10.40;;;;;;;-1.35;72.70;100158.24;3549138;79;20937;-75
2021/12/09 10:14:37;;;;;;;21.93;13.08;;;;;;;-1.29;72.81;100152.59;3534360;79;21449;-75
2021/12/09 10:19:31;;;;;;;20.40;12.40;;;;;;;-1.33;72.78;100136.66;3559998;79;21026;-75
2021/12/09 10:24:26;;;;;;;18.00;11.45;;;;;;;-1.38;72.85;100110.02;3485530;79;20920;-75
2021/12/09 10:29:38;;;;;;;17.12;11.20;;;;;;;-1.37;73.07;100077.36;3540568;79;21436;-78
2021/12/09 10:39:42;;;;;;;17.50;10.32;;;;;;;-1.32;73.09;100085.23;3529431;79;20967;-80
2021/12/09 10:44:40;;;;;;;15.63;10.60;;;;;;;-1.34;73.19;100082.63;3612099;78;20960;-80
2021/12/09 10:49:40;;;;;;;18.75;11.28;;;;;;;-1.32;73.31;100085.23;3550550;79;20999;-79
2021/12/09 10:54:37;;;;;;;24.10;15.38;;;;;;;-1.25;73.54;100093.33;3537420;79;20933;-79
2021/12/09 10:59:30;;;;;;;16.87;10.08;;;;;;;-1.16;73.53;100087.84;3506265;79;20991;-75
2021/12/09 11:04:23;;;;;;;15.83;10.45;;;;;;;-1.11;73.48;100103.38;3497167;78;20963;-75
2021/12/09 11:09:15;;;;;;;16.55;11.95;;;;;;;-1.08;73.57;100101.87;3569721;79;20963;-73
2021/12/09 11:14:17;;;;;;;17.50;11.73;;;;;;;-1.07;73.61;100104.02;3480788;79;20885;-79
2021/12/09 11:24:31;;;;;;;17.55;11.25;;;;;;;-1.11;73.59;100082.97;3549936;79;21453;-78
2021/12/09 11:29:47;;;;;;;16.45;11.38;;;;;;;-1.06;73.86;100076.45;3569870;78;20917;-78
2021/12/09 11:34:59;;;;;;;18.85;11.45;;;;;;;-0.98;74.00;100072.64;3567625;79;21047;-76
2021/12/09 11:39:47;;;;;;;17.57;11.83;;;;;;;-0.93;73.82;100050.80;3507231;79;21114;-77
2021/12/09 11:44:39;;;;;;;16.55;11.40;;;;;;;-0.93;73.78;100048.62;3537011;79;20913;-77
2021/12/09 11:49:31;;;;;;;17.48;11.53;;;;;;;-0.87;74.04;100038.34;3524593;79;20955;-77
2021/12/09 11:54:25;;;;;;;16.67;11.08;;;;;;;-0.91;73.96;100032.61;3477442;79;20936;-77
2021/12/09 12:20:35;;;;;;;21.70;13.83;;;;;;;-1.12;74.46;100035.31;3541746;79;20944;-77
2021/12/09 12:36:06;;;;;;;22.05;12.80;;;;;;;-1.06;74.65;99997.35;3587702;78;20952;-76
2021/12/09 12:41:00;;;;;;;18.92;11.68;;;;;;;-1.03;74.59;100006.45;3612249;78;21023;-77
2021/12/09 12:46:06;;;;;;;18.73;11.25;;;;;;;-0.94;74.46;100000.95;3606264;78;21015;-76
2021/12/09 12:51:18;;;;;;;16.02;10.20;;;;;;;-0.94;74.43;99999.27;3554800;78;21483;-77
2021/12/09 12:56:24;;;;;;;19.53;12.00;;;;;;;-1.01;74.29;100007.40;3546768;78;21493;-76
2021/12/09 13:01:18;;;;;;;24.30;14.78;;;;;;;-1.03;74.61;100002.63;3560555;79;21445;-77
2021/12/09 13:06:15;;;;;;;24.92;12.13;;;;;;;-1.05;74.50;100008.05;3504397;79;20955;-77
2021/12/09 13:11:13;;;;;;;21.00;13.98;;;;;;;-1.08;74.58;100001.09;3530412;79;21462;-77
2021/12/09 13:16:35;;;;;;;21.50;13.62;;;;;;;-1.05;74.58;99988.91;3512230;79;21870;-77
2021/12/09 13:21:37;;;;;;;21.15;11.68;;;;;;;-1.08;74.44;99975.58;3543663;79;20975;-76
2021/12/09 13:26:35;;;;;;;19.57;12.82;;;;;;;-1.16;74.60;99984.12;3546336;78;21600;-76
2021/12/09 13:32:00;;;;;;;20.35;12.45;;;;;;;-1.09;74.76;100004.45;3545974;79;20955;-77
2021/12/09 13:37:16;;;;;;;22.10;13.22;;;;;;;-1.06;74.74;100007.15;3547980;79;21043;-76
2021/12/09 13:47:13;;;;;;;23.85;12.78;;;;;;;-1.10;74.55;100023.52;3536761;79;20988;-76
2021/12/09 13:57:43;;;;;;;18.87;13.20;;;;;;;-1.08;74.70;100007.88;3523744;80;20952;-76
2021/12/09 14:02:35;;;;;;;19.30;12.20;;;;;;;-1.12;74.59;100005.97;3486035;80;20995;-76
2021/12/09 14:07:34;;;;;;;21.35;13.58;;;;;;;-1.17;74.65;99995.11;3543897;80;21031;-77
2021/12/09 14:12:35;;;;;;;23.80;13.40;;;;;;;-1.22;74.78;99999.09;3485523;80;20897;-76
2021/12/09 14:17:26;;;;;;;23.70;14.07;;;;;;;-1.29;74.77;99998.69;3490976;80;20960;-76
2021/12/09 14:22:29;;;;;;;20.62;12.65;;;;;;;-1.33;75.00;99995.11;3476744;80;20956;-76
2021/12/09 14:27:23;;;;;;;28.92;13.78;;;;;;;-1.27;75.21;99978.87;3467341;80;20933;-75
2021/12/09 14:32:15;;;;;;;23.25;13.20;;;;;;;-1.25;75.17;99988.75;3537362;80;21633;-76
2021/12/09 14:37:10;;;;;;;28.25;16.05;;;;;;;-1.25;74.97;99998.05;3404835;80;21034;-74
2021/12/09 14:42:13;;;;;;;24.50;13.43;;;;;;;-1.29;75.13;99989.36;3516591;80;20943;-74
2021/12/09 14:47:15;;;;;;;23.10;13.30;;;;;;;-1.30;75.00;99973.59;3495836;80;21391;-74
2021/12/09 14:52:07;;;;;;;28.52;15.30;;;;;;;-1.36;75.00;99989.83;3454336;79;20908;-74
2021/12/09 14:57:10;;;;;;;28.77;15.72;;;;;;;-1.32;75.27;99999.42;3565944;79;21050;-76
2021/12/09 15:02:19;;;;;;;28.00;15.13;;;;;;;-1.32;75.22;99999.42;3506090;79;20948;-75
2021/12/09 15:07:27;;;;;;;30.68;15.80;;;;;;;-1.39;75.24;99995.66;3528728;79;21460;-75
2021/12/09 15:12:13;;;;;;;29.55;14.98;;;;;;;-1.34;75.40;99998.47;3545975;79;21299;-74
2021/12/09 15:17:22;;;;;;;29.23;15.93;;;;;;;-1.26;75.53;100007.39;3604842;78;21418;-77
2021/12/09 15:22:19;;;;;;;31.07;15.65;;;;;;;-1.19;75.51;100004.36;3584662;78;21019;-78
2021/12/09 15:27:10;;;;;;;34.23;17.37;;;;;;;-1.20;75.33;100005.17;3541328;78;20971;-77
2021/12/09 15:32:07;;;;;;;27.05;15.13;;;;;;;-1.20;75.53;99985.14;3630438;77;20907;-79
2021/12/09 15:37:05;;;;;;;28.20;16.40;;;;;;;-1.19;75.50;99982.67;3546467;79;20967;-76
2021/12/09 15:42:09;;;;;;;30.75;16.07;;;;;;;-1.22;75.62;99982.91;3632825;77;20943;-76
2021/12/09 15:47:15;;;;;;;31.35;16.20;;;;;;;-1.19;75.62;99980.53;3589050;78;21137;-76
2021/12/09 15:52:09;;;;;;;30.57;17.67;;;;;;;-1.27;75.59;99977.59;3588462;78;20983;-76
2021/12/09 15:57:07;;;;;;;36.68;16.90;;;;;;;-1.26;75.73;99958.05;3601821;78;20956;-76
2021/12/09 16:02:02;;;;;;;30.05;15.65;;;;;;;-1.30;75.79;99944.27;3602738;77;21488;-76
2021/12/09 16:06:56;;;;;;;38.20;19.30;;;;;;;-1.26;75.85;99935.97;3603449;78;20932;-76
2021/12/09 16:11:49;;;;;;;38.20;20.50;;;;;;;-1.27;75.78;99943.16;3551661;78;21849;-75
2021/12/09 16:16:48;;;;;;;36.35;19.42;;;;;;;-1.22;75.88;99946.80;3575285;78;20943;-80
2021/12/09 16:22:38;;;;;;;29.20;15.15;;;;;;;-1.25;75.79;99958.14;3571451;78;20956;-78
2021/12/09 16:26:45;;;;;;;29.60;17.80;;;;;;;-1.27;75.85;99955.91;3598351;78;20987;-77
2021/12/09 16:31:37;;;;;;;32.33;16.97;;;;;;;-1.27;75.83;99945.71;3611650;78;20909;-78
2021/12/09 16:36:29;;;;;;;28.80;18.05;;;;;;;-1.25;76.00;99945.76;3565732;78;20959;-78
2021/12/09 16:41:21;;;;;;;29.57;15.10;;;;;;;-1.25;75.90;99936.83;3544151;78;21003;-78
2021/12/09 16:46:14;;;;;;;30.85;16.73;;;;;;;-1.26;75.95;99941.06;3620020;78;21430;-78
2021/12/09 16:51:10;;;;;;;28.05;16.62;;;;;;;-1.19;76.18;99960.99;3508892;78;20956;-78
2021/12/09 16:56:11;;;;;;;30.60;15.43;;;;;;;-1.15;76.12;99954.38;3581564;79;20969;-78
2021/12/09 17:01:04;;;;;;;29.27;14.95;;;;;;;-1.20;76.00;99956.70;3532343;80;20940;-78
2021/12/09 17:05:58;;;;;;;26.37;14.30;;;;;;;-1.21;76.18;99964.28;3487998;80;20978;-79
2021/12/09 17:10:50;;;;;;;26.30;15.48;;;;;;;-1.21;76.19;99954.94;3512836;80;20995;-78
2021/12/09 17:15:44;;;;;;;28.62;15.15;;;;;;;-1.23;76.28;99961.64;3542508;79;20944;-78
2021/12/09 17:20:37;;;;;;;28.67;15.40;;;;;;;-1.24;76.34;99958.59;3507407;80;20972;-78
2021/12/09 17:25:31;;;;;;;26.62;15.55;;;;;;;-1.25;76.38;99940.28;3538228;80;21495;-78
2021/12/09 17:30:24;;;;;;;27.25;16.23;;;;;;;-1.22;76.66;99946.80;3507491;80;20908;-78
2021/12/09 17:35:17;;;;;;;29.20;15.48;;;;;;;-1.23;76.55;99945.06;3533467;79;20975;-79
2021/12/09 17:40:13;;;;;;;29.40;15.53;;;;;;;-1.21;76.77;99942.19;3511310;80;20971;-78
2021/12/09 17:45:09;;;;;;;27.27;15.38;;;;;;;-1.22;76.69;99930.22;3461421;80;20943;-78
2021/12/09 17:50:03;;;;;;;28.90;15.80;;;;;;;-1.25;76.82;99927.53;3541822;80;22472;-78
2021/12/09 17:54:55;;;;;;;30.32;15.43;;;;;;;-1.30;76.93;99911.11;3609817;77;21481;-78
2021/12/09 17:59:47;;;;;;;28.52;15.23;;;;;;;-1.28;77.13;99910.78;3577804;78;21533;-78
2021/12/09 18:04:40;;;;;;;31.95;14.93;;;;;;;-1.29;77.19;99903.91;3618528;78;21985;-79
2021/12/09 18:09:33;;;;;;;25.15;15.00;;;;;;;-1.31;77.37;99905.92;3583759;78;20932;-78
2021/12/09 18:14:27;;;;;;;30.48;17.27;;;;;;;-1.30;77.55;99912.39;3532546;78;20908;-78
2021/12/09 18:19:19;;;;;;;26.80;14.78;;;;;;;-1.26;77.67;99904.09;3544180;79;21038;-78
2021/12/09 18:24:12;;;;;;;29.00;16.12;;;;;;;-1.25;77.72;99907.13;3549982;79;20948;-78
2021/12/09 18:29:06;;;;;;;22.75;14.45;;;;;;;-1.25;77.66;99890.55;3572051;79;20964;-78
2021/12/09 18:33:58;;;;;;;25.30;15.45;;;;;;;-1.20;77.76;99881.45;3598870;77;21516;-78
2021/12/09 18:38:54;;;;;;;27.60;14.70;;;;;;;-1.27;77.72;99883.22;3517600;79;21425;-78
2021/12/09 18:43:47;;;;;;;28.80;15.95;;;;;;;-1.23;77.92;99880.02;3520145;79;21934;-78
2021/12/09 18:48:40;;;;;;;24.15;13.40;;;;;;;-1.18;78.09;99883.68;3565743;78;21532;-79
2021/12/09 18:53:34;;;;;;;25.12;14.55;;;;;;;-1.20;77.91;99876.36;3531565;79;21509;-79
2021/12/09 18:58:26;;;;;;;23.35;14.43;;;;;;;-1.22;78.05;99878.33;3562948;79;20937;-78
2021/12/09 19:03:20;;;;;;;22.30;13.90;;;;;;;-1.23;78.09;99890.22;3540405;79;21048;-78
2021/12/09 19:08:14;;;;;;;25.40;13.10;;;;;;;-1.26;78.20;99889.19;3515308;80;20940;-78
2021/12/09 19:13:08;;;;;;;25.97;13.55;;;;;;;-1.20;78.26;99895.48;3486818;80;20921;-79
2021/12/09 19:18:04;;;;;;;26.50;14.50;;;;;;;-1.18;78.33;99892.61;3559339;78;21454;-78
2021/12/09 19:22:56;;;;;;;24.63;13.90;;;;;;;-1.16;78.39;99888.87;3509553;80;20976;-79
2021/12/09 19:27:52;;;;;;;23.83;12.98;;;;;;;-1.12;78.33;99891.17;3536190;78;21641;-79
2021/12/09 19:33:28;;;;;;;25.08;14.30;;;;;;;-1.10;78.47;99878.95;3545363;78;21016;-78
2021/12/09 19:38:12;;;;;;;34.63;20.15;;;;;;;-1.04;78.40;99880.93;3412508;81;20940;-78
2021/12/09 19:43:05;;;;;;;32.28;17.37;;;;;;;-1.04;78.56;99888.58;3357313;81;20994;-78
2021/12/09 19:47:58;;;;;;;29.27;15.88;;;;;;;-1.03;78.45;99880.14;3384188;81;21028;-78
2021/12/09 19:52:52;;;;;;;25.08;14.23;;;;;;;-1.05;78.55;99872.82;3402949;81;21150;-79
2021/12/09 19:57:50;;;;;;;25.52;13.95;;;;;;;-1.03;78.62;99861.88;3450444;80;20925;-78
2021/12/09 20:02:43;;;;;;;24.02;13.58;;;;;;;-1.03;78.52;99853.35;3419669;82;21265;-79
2021/12/09 20:07:36;;;;;;;26.05;13.83;;;;;;;-1.01;78.66;99841.55;3468963;82;20955;-78
2021/12/09 20:12:28;;;;;;;27.30;13.78;;;;;;;-1.01;78.68;99832.61;3480832;79;21007;-79
2021/12/09 20:17:21;;;;;;;22.73;12.88;;;;;;;-1.02;78.78;99830.84;3546846;78;20976;-78
2021/12/09 20:22:13;;;;;;;19.85;12.05;;;;;;;-0.97;79.01;99830.67;3508085;78;20967;-78
2021/12/09 20:27:06;;;;;;;21.57;13.72;;;;;;;-0.95;78.85;99815.03;3520720;79;20937;-78
2021/12/09 20:31:58;;;;;;;21.65;13.13;;;;;;;-0.99;78.91;99813.14;3483912;79;20977;-79
2021/12/09 20:36:51;;;;;;;21.70;12.20;;;;;;;-0.96;79.00;99813.30;3547416;79;21092;-78
2021/12/09 20:41:43;;;;;;;22.93;13.28;;;;;;;-1.00;78.92;99804.63;3506449;79;21018;-78
2021/12/09 20:46:35;;;;;;;20.00;11.57;;;;;;;-1.00;79.07;99803.76;3538493;79;20934;-78
2021/12/09 20:51:30;;;;;;;19.85;12.93;;;;;;;-1.02;79.16;99794.75;3564783;79;20928;-79
2021/12/09 20:56:22;;;;;;;21.70;13.45;;;;;;;-0.98;79.27;99793.22;3540478;79;20981;-78
2021/12/09 21:01:16;;;;;;;19.32;12.15;;;;;;;-0.98;79.27;99789.39;3456184;79;20923;-78
2021/12/09 21:06:09;;;;;;;19.35;11.73;;;;;;;-0.99;79.30;99788.49;3512668;79;21075;-78
2021/12/09 21:11:05;;;;;;;18.90;12.60;;;;;;;-0.99;79.33;99781.25;3507083;79;21213;-79
2021/12/09 21:16:05;;;;;;;22.62;13.78;;;;;;;-0.95;79.48;99774.20;3459261;80;21013;-78
2021/12/09 21:20:55;;;;;;;20.25;12.55;;;;;;;-0.90;79.56;99767.65;3512082;80;21611;-79
2021/12/09 21:25:48;;;;;;;22.22;13.98;;;;;;;-0.88;79.50;99763.48;3539630;79;20940;-78
2021/12/09 21:30:41;;;;;;;20.10;11.93;;;;;;;-0.86;79.42;99752.98;3516338;80;21570;-79
2021/12/09 21:35:34;;;;;;;20.82;11.85;;;;;;;-0.88;79.47;99743.06;3515846;79;20947;-78
2021/12/09 21:40:30;;;;;;;18.02;12.25;;;;;;;-0.89;79.60;99732.81;3525774;79;20987;-78
2021/12/09 21:45:26;;;;;;;14.03;8.97;;;;;;;-0.93;79.55;99734.35;3524030;79;20947;-78
2021/12/09 21:50:19;;;;;;;24.32;11.68;;;;;;;-0.88;79.66;99731.99;3478842;79;21425;-78
2021/12/09 21:55:13;;;;;;;19.12;11.30;;;;;;;-0.86;79.65;99733.84;3525436;78;21037;-79
2021/12/09 22:00:10;;;;;;;22.52;12.23;;;;;;;-0.82;79.56;99718.27;3479591;78;20957;-78
2021/12/09 22:05:05;;;;;;;20.02;11.85;;;;;;;-0.79;79.60;99712.00;3501543;78;20947;-79
2021/12/09 22:10:00;;;;;;;22.75;12.58;;;;;;;-0.79;79.59;99718.00;3508983;79;20943;-78
2021/12/09 22:14:52;;;;;;;22.05;13.15;;;;;;;-0.78;79.71;99719.73;3540723;79;21598;-79
2021/12/09 22:19:45;;;;;;;21.37;12.37;;;;;;;-0.80;79.70;99697.51;3489135;79;21484;-78
2021/12/09 22:24:38;;;;;;;22.20;14.20;;;;;;;-0.79;79.67;99686.48;3580221;78;20986;-78
2021/12/09 22:29:31;;;;;;;19.02;12.35;;;;;;;-0.78;79.74;99683.13;3531590;78;20932;-79
2021/12/09 22:34:23;;;;;;;23.85;12.82;;;;;;;-0.79;79.66;99686.09;3569843;78;21027;-78
2021/12/09 22:39:16;;;;;;;19.17;13.62;;;;;;;-0.77;79.76;99688.31;3574327;78;20946;-78
2021/12/09 22:44:10;;;;;;;19.25;12.53;;;;;;;-0.73;79.71;99685.88;3577399;78;21833;-79
2021/12/09 22:49:04;;;;;;;20.50;12.25;;;;;;;-0.75;79.72;99676.00;3504096;78;21022;-78
2021/12/09 22:53:57;;;;;;;21.45;11.43;;;;;;;-0.71;79.81;99659.63;3606961;77;20986;-79
2021/12/09 22:58:50;;;;;;;17.55;10.15;;;;;;;-0.72;79.94;99641.69;3544824;77;20972;-78
2021/12/09 23:03:42;;;;;;;23.35;12.68;;;;;;;-0.72;79.84;99636.59;3592941;78;21015;-79
2021/12/09 23:08:44;;;;;;;23.70;12.95;;;;;;;-0.74;79.79;99630.55;3616270;77;20934;-79
2021/12/09 23:13:41;;;;;;;21.23;12.07;;;;;;;-0.74;79.86;99627.99;3624068;77;21507;-78
2021/12/09 23:18:35;;;;;;;21.73;11.95;;;;;;;-0.71;79.90;99633.23;3573794;78;21003;-79
2021/12/09 23:23:28;;;;;;;22.22;13.25;;;;;;;-0.71;80.07;99628.14;3534019;77;20963;-78
2021/12/09 23:28:25;;;;;;;20.77;12.73;;;;;;;-0.73;79.92;99634.83;3525994;77;20986;-79
2021/12/09 23:33:18;;;;;;;22.75;13.10;;;;;;;-0.67;80.14;99636.39;3567211;77;20983;-79